sensor_id;sensor_type;location;lat;lon;timestamp;P1;durP1;ratioP1;P2;durP2;ratioP2
32633;SDS011;19043;51.012;5.648;2023-04-19T00:01:42;15.70;;;14.05;;
32633;SDS011;19043;51.012;5.648;2023-04-19T00:04:08;15.13;;;13.40;;
32633;SDS011;19043;51.012;5.648;2023-04-19T00:06:33;17.38;;;13.02;;
32633;SDS011;19043;51.012;5.648;2023-04-19T00:08:59;13.75;;;12.25;;
32633;SDS011;19043;51.012;5.648;2023-04-19T00:11:24;19.65;;;13.48;;
32633;SDS011;19043;51.012;5.648;2023-04-19T00:13:49;14.45;;;12.23;;
32633;SDS011;19043;51.012;5.648;2023-04-19T00:16:15;16.23;;;13.15;;
32633;SDS011;19043;51.012;5.648;2023-04-19T00:18:40;15.35;;;12.35;;
32633;SDS011;19043;51.012;5.648;2023-04-19T00:21:06;14.77;;;13.15;;
32633;SDS011;19043;51.012;5.648;2023-04-19T00:23:32;13.38;;;11.30;;
32633;SDS011;19043;51.012;5.648;2023-04-19T00:25:57;16.88;;;13.65;;
32633;SDS011;19043;51.012;5.648;2023-04-19T00:30:48;16.00;;;11.90;;
32633;SDS011;19043;51.012;5.648;2023-04-19T00:33:14;15.35;;;11.63;;
32633;SDS011;19043;51.012;5.648;2023-04-19T00:35:39;17.27;;;12.38;;
32633;SDS011;19043;51.012;5.648;2023-04-19T00:38:06;17.48;;;12.20;;
32633;SDS011;19043;51.012;5.648;2023-04-19T00:40:31;15.82;;;12.63;;
32633;SDS011;19043;51.012;5.648;2023-04-19T00:42:56;16.48;;;12.02;;
32633;SDS011;19043;51.012;5.648;2023-04-19T00:45:21;14.13;;;12.65;;
32633;SDS011;19043;51.012;5.648;2023-04-19T00:47:46;16.67;;;11.57;;
32633;SDS011;19043;51.012;5.648;2023-04-19T00:50:12;12.77;;;11.13;;
32633;SDS011;19043;51.012;5.648;2023-04-19T00:52:37;18.30;;;12.52;;
32633;SDS011;19043;51.012;5.648;2023-04-19T00:55:03;13.18;;;11.80;;
32633;SDS011;19043;51.012;5.648;2023-04-19T00:57:29;14.07;;;11.65;;
32633;SDS011;19043;51.012;5.648;2023-04-19T00:59:55;11.50;;;10.20;;
32633;SDS011;19043;51.012;5.648;2023-04-19T01:02:20;15.63;;;12.30;;
32633;SDS011;19043;51.012;5.648;2023-04-19T01:04:46;13.60;;;11.60;;
32633;SDS011;19043;51.012;5.648;2023-04-19T01:07:11;14.55;;;12.15;;
32633;SDS011;19043;51.012;5.648;2023-04-19T01:09:40;17.25;;;11.98;;
32633;SDS011;19043;51.012;5.648;2023-04-19T01:12:05;14.30;;;11.68;;
32633;SDS011;19043;51.012;5.648;2023-04-19T01:14:31;22.83;;;12.27;;
32633;SDS011;19043;51.012;5.648;2023-04-19T01:16:56;14.25;;;11.40;;
32633;SDS011;19043;51.012;5.648;2023-04-19T01:19:21;16.80;;;11.27;;
32633;SDS011;19043;51.012;5.648;2023-04-19T01:21:47;18.95;;;12.02;;
32633;SDS011;19043;51.012;5.648;2023-04-19T01:24:12;16.63;;;12.35;;
32633;SDS011;19043;51.012;5.648;2023-04-19T01:26:38;14.57;;;11.35;;
32633;SDS011;19043;51.012;5.648;2023-04-19T01:29:03;13.95;;;11.38;;
32633;SDS011;19043;51.012;5.648;2023-04-19T01:31:28;13.65;;;11.07;;
32633;SDS011;19043;51.012;5.648;2023-04-19T01:33:53;14.77;;;11.23;;
32633;SDS011;19043;51.012;5.648;2023-04-19T01:36:19;17.13;;;12.10;;
32633;SDS011;19043;51.012;5.648;2023-04-19T01:38:44;14.07;;;11.27;;
32633;SDS011;19043;51.012;5.648;2023-04-19T01:41:11;14.32;;;11.45;;
32633;SDS011;19043;51.012;5.648;2023-04-19T01:43:37;13.88;;;11.65;;
32633;SDS011;19043;51.012;5.648;2023-04-19T01:46:02;17.20;;;11.60;;
32633;SDS011;19043;51.012;5.648;2023-04-19T01:48:27;16.13;;;12.15;;
32633;SDS011;19043;51.012;5.648;2023-04-19T01:50:52;14.38;;;11.73;;
32633;SDS011;19043;51.012;5.648;2023-04-19T01:53:18;15.45;;;12.48;;
32633;SDS011;19043;51.012;5.648;2023-04-19T01:55:43;18.77;;;12.05;;
32633;SDS011;19043;51.012;5.648;2023-04-19T01:58:08;16.23;;;11.55;;
32633;SDS011;19043;51.012;5.648;2023-04-19T02:00:33;17.00;;;13.65;;
32633;SDS011;19043;51.012;5.648;2023-04-19T02:02:59;18.50;;;12.18;;
32633;SDS011;19043;51.012;5.648;2023-04-19T02:05:24;13.88;;;12.02;;
32633;SDS011;19043;51.012;5.648;2023-04-19T02:07:49;15.15;;;12.30;;
32633;SDS011;19043;51.012;5.648;2023-04-19T02:10:15;16.98;;;11.95;;
32633;SDS011;19043;51.012;5.648;2023-04-19T02:12:40;16.50;;;13.10;;
32633;SDS011;19043;51.012;5.648;2023-04-19T02:15:06;17.13;;;13.00;;
32633;SDS011;19043;51.012;5.648;2023-04-19T02:17:31;16.05;;;12.63;;
32633;SDS011;19043;51.012;5.648;2023-04-19T02:19:56;14.18;;;12.52;;
32633;SDS011;19043;51.012;5.648;2023-04-19T02:22:21;17.20;;;12.30;;
32633;SDS011;19043;51.012;5.648;2023-04-19T02:24:48;15.70;;;12.50;;
32633;SDS011;19043;51.012;5.648;2023-04-19T02:27:13;17.48;;;13.05;;
32633;SDS011;19043;51.012;5.648;2023-04-19T02:29:39;18.75;;;12.80;;
32633;SDS011;19043;51.012;5.648;2023-04-19T02:32:04;17.38;;;12.50;;
32633;SDS011;19043;51.012;5.648;2023-04-19T02:34:31;16.52;;;12.27;;
32633;SDS011;19043;51.012;5.648;2023-04-19T02:36:56;16.58;;;14.25;;
32633;SDS011;19043;51.012;5.648;2023-04-19T02:39:21;22.15;;;12.57;;
32633;SDS011;19043;51.012;5.648;2023-04-19T02:41:47;15.88;;;12.45;;
32633;SDS011;19043;51.012;5.648;2023-04-19T02:44:12;18.10;;;13.55;;
32633;SDS011;19043;51.012;5.648;2023-04-19T02:46:37;15.52;;;12.98;;
32633;SDS011;19043;51.012;5.648;2023-04-19T02:49:03;19.60;;;14.02;;
32633;SDS011;19043;51.012;5.648;2023-04-19T02:51:28;18.65;;;13.80;;
32633;SDS011;19043;51.012;5.648;2023-04-19T02:53:53;20.33;;;13.95;;
32633;SDS011;19043;51.012;5.648;2023-04-19T02:56:18;15.05;;;13.38;;
32633;SDS011;19043;51.012;5.648;2023-04-19T02:58:44;19.98;;;14.40;;
32633;SDS011;19043;51.012;5.648;2023-04-19T03:01:09;17.67;;;14.13;;
32633;SDS011;19043;51.012;5.648;2023-04-19T03:03:35;22.00;;;15.20;;
32633;SDS011;19043;51.012;5.648;2023-04-19T03:06:00;19.00;;;14.02;;
32633;SDS011;19043;51.012;5.648;2023-04-19T03:08:26;18.23;;;15.27;;
32633;SDS011;19043;51.012;5.648;2023-04-19T03:10:51;20.42;;;15.02;;
32633;SDS011;19043;51.012;5.648;2023-04-19T03:13:16;20.13;;;14.80;;
32633;SDS011;19043;51.012;5.648;2023-04-19T03:15:41;19.13;;;15.50;;
32633;SDS011;19043;51.012;5.648;2023-04-19T03:18:07;22.20;;;15.85;;
32633;SDS011;19043;51.012;5.648;2023-04-19T03:20:32;24.05;;;15.45;;
32633;SDS011;19043;51.012;5.648;2023-04-19T03:22:58;23.45;;;15.38;;
32633;SDS011;19043;51.012;5.648;2023-04-19T03:25:23;21.90;;;15.23;;
32633;SDS011;19043;51.012;5.648;2023-04-19T03:27:48;22.92;;;15.80;;
32633;SDS011;19043;51.012;5.648;2023-04-19T03:30:15;20.13;;;16.00;;
32633;SDS011;19043;51.012;5.648;2023-04-19T03:32:42;18.42;;;15.02;;
32633;SDS011;19043;51.012;5.648;2023-04-19T03:35:07;19.83;;;17.17;;
32633;SDS011;19043;51.012;5.648;2023-04-19T03:37:32;24.02;;;16.52;;
32633;SDS011;19043;51.012;5.648;2023-04-19T03:39:58;24.77;;;16.67;;
32633;SDS011;19043;51.012;5.648;2023-04-19T03:42:23;21.08;;;17.15;;
32633;SDS011;19043;51.012;5.648;2023-04-19T03:44:48;22.52;;;16.60;;
32633;SDS011;19043;51.012;5.648;2023-04-19T03:47:14;25.15;;;17.90;;
32633;SDS011;19043;51.012;5.648;2023-04-19T03:49:39;20.70;;;17.08;;
32633;SDS011;19043;51.012;5.648;2023-04-19T03:52:04;22.45;;;18.42;;
32633;SDS011;19043;51.012;5.648;2023-04-19T03:54:30;25.45;;;19.73;;
32633;SDS011;19043;51.012;5.648;2023-04-19T03:56:55;23.55;;;18.33;;
32633;SDS011;19043;51.012;5.648;2023-04-19T03:59:21;25.13;;;17.63;;
32633;SDS011;19043;51.012;5.648;2023-04-19T04:01:46;28.38;;;19.48;;
32633;SDS011;19043;51.012;5.648;2023-04-19T04:04:11;25.23;;;19.50;;
32633;SDS011;19043;51.012;5.648;2023-04-19T04:06:37;25.95;;;19.38;;
32633;SDS011;19043;51.012;5.648;2023-04-19T04:09:02;24.42;;;19.10;;
32633;SDS011;19043;51.012;5.648;2023-04-19T04:11:28;26.70;;;19.50;;
32633;SDS011;19043;51.012;5.648;2023-04-19T04:13:54;24.30;;;19.20;;
32633;SDS011;19043;51.012;5.648;2023-04-19T04:16:19;27.38;;;19.27;;
32633;SDS011;19043;51.012;5.648;2023-04-19T04:18:45;25.33;;;19.15;;
32633;SDS011;19043;51.012;5.648;2023-04-19T04:21:10;22.45;;;19.20;;
32633;SDS011;19043;51.012;5.648;2023-04-19T04:23:35;23.30;;;18.33;;
32633;SDS011;19043;51.012;5.648;2023-04-19T04:26:01;26.98;;;20.33;;
32633;SDS011;19043;51.012;5.648;2023-04-19T04:28:28;23.98;;;17.77;;
32633;SDS011;19043;51.012;5.648;2023-04-19T04:30:55;24.55;;;18.55;;
32633;SDS011;19043;51.012;5.648;2023-04-19T04:33:24;27.45;;;19.08;;
32633;SDS011;19043;51.012;5.648;2023-04-19T04:35:50;23.23;;;16.90;;
32633;SDS011;19043;51.012;5.648;2023-04-19T04:38:16;23.05;;;18.52;;
32633;SDS011;19043;51.012;5.648;2023-04-19T04:40:41;22.15;;;17.35;;
32633;SDS011;19043;51.012;5.648;2023-04-19T04:43:06;22.40;;;18.45;;
32633;SDS011;19043;51.012;5.648;2023-04-19T04:45:32;22.45;;;18.00;;
32633;SDS011;19043;51.012;5.648;2023-04-19T04:47:57;23.50;;;16.73;;
32633;SDS011;19043;51.012;5.648;2023-04-19T04:50:23;25.92;;;17.63;;
32633;SDS011;19043;51.012;5.648;2023-04-19T04:52:48;20.80;;;16.55;;
32633;SDS011;19043;51.012;5.648;2023-04-19T04:55:13;23.60;;;17.35;;
32633;SDS011;19043;51.012;5.648;2023-04-19T04:57:38;19.58;;;16.90;;
32633;SDS011;19043;51.012;5.648;2023-04-19T05:00:04;21.88;;;17.38;;
32633;SDS011;19043;51.012;5.648;2023-04-19T05:02:30;17.60;;;14.50;;
32633;SDS011;19043;51.012;5.648;2023-04-19T05:04:56;19.55;;;16.23;;
32633;SDS011;19043;51.012;5.648;2023-04-19T05:07:21;19.52;;;14.77;;
32633;SDS011;19043;51.012;5.648;2023-04-19T05:09:46;25.17;;;16.67;;
32633;SDS011;19043;51.012;5.648;2023-04-19T05:12:11;27.05;;;16.10;;
32633;SDS011;19043;51.012;5.648;2023-04-19T05:14:37;21.30;;;15.80;;
32633;SDS011;19043;51.012;5.648;2023-04-19T05:17:02;21.35;;;14.82;;
32633;SDS011;19043;51.012;5.648;2023-04-19T05:19:27;20.70;;;16.48;;
32633;SDS011;19043;51.012;5.648;2023-04-19T05:21:52;21.27;;;15.32;;
32633;SDS011;19043;51.012;5.648;2023-04-19T05:24:18;21.55;;;15.57;;
32633;SDS011;19043;51.012;5.648;2023-04-19T05:26:43;18.50;;;14.73;;
32633;SDS011;19043;51.012;5.648;2023-04-19T05:29:08;18.95;;;15.70;;
32633;SDS011;19043;51.012;5.648;2023-04-19T05:31:33;24.02;;;15.30;;
32633;SDS011;19043;51.012;5.648;2023-04-19T05:33:59;18.77;;;14.27;;
32633;SDS011;19043;51.012;5.648;2023-04-19T05:36:24;23.98;;;16.13;;
32633;SDS011;19043;51.012;5.648;2023-04-19T05:38:50;19.85;;;14.90;;
32633;SDS011;19043;51.012;5.648;2023-04-19T05:41:16;19.80;;;15.65;;
32633;SDS011;19043;51.012;5.648;2023-04-19T05:43:41;21.10;;;15.15;;
32633;SDS011;19043;51.012;5.648;2023-04-19T05:46:06;18.92;;;15.52;;
32633;SDS011;19043;51.012;5.648;2023-04-19T05:48:31;18.38;;;14.57;;
32633;SDS011;19043;51.012;5.648;2023-04-19T05:50:57;17.60;;;14.00;;
32633;SDS011;19043;51.012;5.648;2023-04-19T05:53:24;17.33;;;13.35;;
32633;SDS011;19043;51.012;5.648;2023-04-19T05:55:49;16.73;;;13.43;;
32633;SDS011;19043;51.012;5.648;2023-04-19T05:58:16;18.67;;;14.30;;
32633;SDS011;19043;51.012;5.648;2023-04-19T06:00:41;20.80;;;13.63;;
32633;SDS011;19043;51.012;5.648;2023-04-19T06:03:06;15.00;;;11.95;;
32633;SDS011;19043;51.012;5.648;2023-04-19T06:05:32;20.10;;;12.75;;
32633;SDS011;19043;51.012;5.648;2023-04-19T06:07:58;14.43;;;11.88;;
32633;SDS011;19043;51.012;5.648;2023-04-19T06:10:23;15.88;;;12.40;;
32633;SDS011;19043;51.012;5.648;2023-04-19T06:12:48;17.45;;;12.60;;
32633;SDS011;19043;51.012;5.648;2023-04-19T06:15:13;15.85;;;13.00;;
32633;SDS011;19043;51.012;5.648;2023-04-19T06:17:39;16.42;;;12.70;;
32633;SDS011;19043;51.012;5.648;2023-04-19T06:20:05;17.75;;;11.95;;
32633;SDS011;19043;51.012;5.648;2023-04-19T06:22:32;16.08;;;12.23;;
32633;SDS011;19043;51.012;5.648;2023-04-19T06:24:57;17.27;;;12.45;;
32633;SDS011;19043;51.012;5.648;2023-04-19T06:27:22;18.73;;;13.00;;
32633;SDS011;19043;51.012;5.648;2023-04-19T06:29:48;20.17;;;13.52;;
32633;SDS011;19043;51.012;5.648;2023-04-19T06:32:13;14.38;;;11.57;;
32633;SDS011;19043;51.012;5.648;2023-04-19T06:34:38;14.55;;;11.45;;
32633;SDS011;19043;51.012;5.648;2023-04-19T06:37:03;15.30;;;11.30;;
32633;SDS011;19043;51.012;5.648;2023-04-19T06:39:29;15.10;;;10.50;;
32633;SDS011;19043;51.012;5.648;2023-04-19T06:41:54;15.25;;;10.52;;
32633;SDS011;19043;51.012;5.648;2023-04-19T06:44:19;14.13;;;10.60;;
32633;SDS011;19043;51.012;5.648;2023-04-19T06:46:44;13.25;;;10.45;;
32633;SDS011;19043;51.012;5.648;2023-04-19T06:49:10;10.95;;;9.55;;
32633;SDS011;19043;51.012;5.648;2023-04-19T06:51:36;15.50;;;11.18;;
32633;SDS011;19043;51.012;5.648;2023-04-19T06:54:01;13.60;;;10.48;;
32633;SDS011;19043;51.012;5.648;2023-04-19T06:59:05;13.80;;;8.98;;
32633;SDS011;19043;51.012;5.648;2023-04-19T07:01:30;11.45;;;8.80;;
32633;SDS011;19043;51.012;5.648;2023-04-19T07:03:55;15.65;;;7.78;;
32633;SDS011;19043;51.012;5.648;2023-04-19T07:06:20;9.50;;;7.90;;
32633;SDS011;19043;51.012;5.648;2023-04-19T07:08:46;11.68;;;7.72;;
32633;SDS011;19043;51.012;5.648;2023-04-19T07:11:11;13.57;;;6.80;;
32633;SDS011;19043;51.012;5.648;2023-04-19T07:13:36;9.45;;;6.88;;
32633;SDS011;19043;51.012;5.648;2023-04-19T07:16:04;10.90;;;7.53;;
32633;SDS011;19043;51.012;5.648;2023-04-19T07:18:31;8.05;;;6.57;;
32633;SDS011;19043;51.012;5.648;2023-04-19T07:20:56;8.10;;;6.78;;
32633;SDS011;19043;51.012;5.648;2023-04-19T07:23:22;9.40;;;6.70;;
32633;SDS011;19043;51.012;5.648;2023-04-19T07:25:47;8.77;;;6.93;;
32633;SDS011;19043;51.012;5.648;2023-04-19T07:28:12;10.25;;;6.85;;
32633;SDS011;19043;51.012;5.648;2023-04-19T07:30:37;8.70;;;6.55;;
32633;SDS011;19043;51.012;5.648;2023-04-19T07:33:03;9.32;;;6.70;;
32633;SDS011;19043;51.012;5.648;2023-04-19T07:35:29;10.50;;;6.82;;
32633;SDS011;19043;51.012;5.648;2023-04-19T07:37:54;9.75;;;5.70;;
32633;SDS011;19043;51.012;5.648;2023-04-19T07:40:19;8.82;;;6.38;;
32633;SDS011;19043;51.012;5.648;2023-04-19T07:42:45;8.77;;;5.97;;
32633;SDS011;19043;51.012;5.648;2023-04-19T07:45:10;8.63;;;5.88;;
32633;SDS011;19043;51.012;5.648;2023-04-19T07:47:35;13.88;;;7.15;;
32633;SDS011;19043;51.012;5.648;2023-04-19T07:50:00;7.65;;;5.93;;
32633;SDS011;19043;51.012;5.648;2023-04-19T07:52:26;9.90;;;6.28;;
32633;SDS011;19043;51.012;5.648;2023-04-19T07:54:51;7.40;;;6.35;;
32633;SDS011;19043;51.012;5.648;2023-04-19T07:57:16;8.23;;;6.18;;
32633;SDS011;19043;51.012;5.648;2023-04-19T07:59:42;10.50;;;6.40;;
32633;SDS011;19043;51.012;5.648;2023-04-19T08:02:07;8.10;;;5.53;;
32633;SDS011;19043;51.012;5.648;2023-04-19T08:04:32;17.85;;;6.43;;
32633;SDS011;19043;51.012;5.648;2023-04-19T08:06:57;8.52;;;5.90;;
32633;SDS011;19043;51.012;5.648;2023-04-19T08:09:23;8.02;;;5.55;;
32633;SDS011;19043;51.012;5.648;2023-04-19T08:11:48;9.80;;;5.90;;
32633;SDS011;19043;51.012;5.648;2023-04-19T08:14:13;12.82;;;6.80;;
32633;SDS011;19043;51.012;5.648;2023-04-19T08:16:39;8.38;;;6.20;;
32633;SDS011;19043;51.012;5.648;2023-04-19T08:19:04;9.98;;;6.57;;
32633;SDS011;19043;51.012;5.648;2023-04-19T08:21:30;12.50;;;6.55;;
32633;SDS011;19043;51.012;5.648;2023-04-19T08:23:55;10.13;;;6.18;;
32633;SDS011;19043;51.012;5.648;2023-04-19T08:26:20;15.55;;;5.78;;
32633;SDS011;19043;51.012;5.648;2023-04-19T08:28:46;8.13;;;5.82;;
32633;SDS011;19043;51.012;5.648;2023-04-19T08:31:13;8.15;;;5.55;;
32633;SDS011;19043;51.012;5.648;2023-04-19T08:33:39;12.00;;;5.90;;
32633;SDS011;19043;51.012;5.648;2023-04-19T08:36:04;9.27;;;5.82;;
32633;SDS011;19043;51.012;5.648;2023-04-19T08:38:29;9.07;;;6.00;;
32633;SDS011;19043;51.012;5.648;2023-04-19T08:40:55;9.43;;;6.22;;
32633;SDS011;19043;51.012;5.648;2023-04-19T08:43:20;8.40;;;5.95;;
32633;SDS011;19043;51.012;5.648;2023-04-19T08:45:48;9.20;;;6.00;;
32633;SDS011;19043;51.012;5.648;2023-04-19T08:48:14;7.50;;;6.32;;
32633;SDS011;19043;51.012;5.648;2023-04-19T08:50:40;12.43;;;6.55;;
32633;SDS011;19043;51.012;5.648;2023-04-19T08:53:09;6.97;;;6.22;;
32633;SDS011;19043;51.012;5.648;2023-04-19T08:55:35;8.82;;;5.78;;
32633;SDS011;19043;51.012;5.648;2023-04-19T08:58:02;7.20;;;5.32;;
32633;SDS011;19043;51.012;5.648;2023-04-19T09:00:27;8.65;;;5.75;;
32633;SDS011;19043;51.012;5.648;2023-04-19T09:02:53;8.65;;;5.65;;
32633;SDS011;19043;51.012;5.648;2023-04-19T09:05:22;9.63;;;6.63;;
32633;SDS011;19043;51.012;5.648;2023-04-19T09:07:47;6.85;;;5.45;;
32633;SDS011;19043;51.012;5.648;2023-04-19T09:10:14;10.18;;;5.85;;
32633;SDS011;19043;51.012;5.648;2023-04-19T09:12:40;8.30;;;5.90;;
32633;SDS011;19043;51.012;5.648;2023-04-19T09:15:07;8.85;;;5.65;;
32633;SDS011;19043;51.012;5.648;2023-04-19T09:17:37;10.68;;;5.45;;
32633;SDS011;19043;51.012;5.648;2023-04-19T09:20:03;15.30;;;6.22;;
32633;SDS011;19043;51.012;5.648;2023-04-19T09:22:28;8.85;;;5.20;;
32633;SDS011;19043;51.012;5.648;2023-04-19T09:24:54;11.43;;;6.07;;
32633;SDS011;19043;51.012;5.648;2023-04-19T09:27:26;10.05;;;5.68;;
32633;SDS011;19043;51.012;5.648;2023-04-19T09:29:56;9.85;;;5.15;;
32633;SDS011;19043;51.012;5.648;2023-04-19T09:32:21;9.07;;;6.00;;
32633;SDS011;19043;51.012;5.648;2023-04-19T09:34:54;6.50;;;4.70;;
32633;SDS011;19043;51.012;5.648;2023-04-19T09:37:19;9.48;;;5.18;;
32633;SDS011;19043;51.012;5.648;2023-04-19T09:39:45;7.60;;;5.07;;
32633;SDS011;19043;51.012;5.648;2023-04-19T09:42:11;7.55;;;4.75;;
32633;SDS011;19043;51.012;5.648;2023-04-19T09:44:36;9.30;;;4.65;;
32633;SDS011;19043;51.012;5.648;2023-04-19T09:47:01;11.82;;;4.55;;
32633;SDS011;19043;51.012;5.648;2023-04-19T09:49:27;6.88;;;5.07;;
32633;SDS011;19043;51.012;5.648;2023-04-19T09:51:59;7.90;;;4.80;;
32633;SDS011;19043;51.012;5.648;2023-04-19T09:54:25;5.85;;;3.50;;
32633;SDS011;19043;51.012;5.648;2023-04-19T09:56:56;7.35;;;4.47;;
32633;SDS011;19043;51.012;5.648;2023-04-19T09:59:21;9.98;;;4.85;;
32633;SDS011;19043;51.012;5.648;2023-04-19T10:01:47;7.72;;;4.85;;
32633;SDS011;19043;51.012;5.648;2023-04-19T10:04:15;8.30;;;4.85;;
32633;SDS011;19043;51.012;5.648;2023-04-19T10:06:46;7.05;;;4.38;;
32633;SDS011;19043;51.012;5.648;2023-04-19T10:09:12;11.20;;;3.95;;
32633;SDS011;19043;51.012;5.648;2023-04-19T10:11:37;10.95;;;4.82;;
32633;SDS011;19043;51.012;5.648;2023-04-19T10:14:06;6.90;;;4.13;;
32633;SDS011;19043;51.012;5.648;2023-04-19T10:16:32;6.25;;;4.00;;
32633;SDS011;19043;51.012;5.648;2023-04-19T10:18:58;6.88;;;3.72;;
32633;SDS011;19043;51.012;5.648;2023-04-19T10:21:26;5.13;;;3.72;;
32633;SDS011;19043;51.012;5.648;2023-04-19T10:23:51;9.70;;;4.05;;
32633;SDS011;19043;51.012;5.648;2023-04-19T10:26:17;5.47;;;3.65;;
32633;SDS011;19043;51.012;5.648;2023-04-19T10:28:42;12.55;;;3.80;;
32633;SDS011;19043;51.012;5.648;2023-04-19T10:31:10;6.45;;;3.63;;
32633;SDS011;19043;51.012;5.648;2023-04-19T10:33:36;5.90;;;3.60;;
32633;SDS011;19043;51.012;5.648;2023-04-19T10:36:01;6.90;;;3.53;;
32633;SDS011;19043;51.012;5.648;2023-04-19T10:43:34;5.50;;;2.72;;
32633;SDS011;19043;51.012;5.648;2023-04-19T10:46:06;9.75;;;3.10;;
32633;SDS011;19043;51.012;5.648;2023-04-19T10:48:33;6.40;;;3.58;;
32633;SDS011;19043;51.012;5.648;2023-04-19T10:56:08;7.05;;;3.58;;
32633;SDS011;19043;51.012;5.648;2023-04-19T10:59:19;6.13;;;3.58;;
32633;SDS011;19043;51.012;5.648;2023-04-19T11:11:46;9.25;;;2.50;;
32633;SDS011;19043;51.012;5.648;2023-04-19T11:14:11;5.65;;;2.35;;
32633;SDS011;19043;51.012;5.648;2023-04-19T11:16:37;4.68;;;2.78;;
32633;SDS011;19043;51.012;5.648;2023-04-19T11:19:02;6.80;;;2.60;;
32633;SDS011;19043;51.012;5.648;2023-04-19T11:21:28;4.82;;;2.97;;
32633;SDS011;19043;51.012;5.648;2023-04-19T11:24:06;7.30;;;2.80;;
32633;SDS011;19043;51.012;5.648;2023-04-19T11:26:32;5.15;;;2.22;;
32633;SDS011;19043;51.012;5.648;2023-04-19T11:28:57;3.72;;;2.03;;
32633;SDS011;19043;51.012;5.648;2023-04-19T11:31:22;6.13;;;2.63;;
32633;SDS011;19043;51.012;5.648;2023-04-19T11:33:48;6.28;;;2.03;;
32633;SDS011;19043;51.012;5.648;2023-04-19T11:36:13;8.00;;;2.63;;
32633;SDS011;19043;51.012;5.648;2023-04-19T11:38:38;5.47;;;2.38;;
32633;SDS011;19043;51.012;5.648;2023-04-19T11:41:04;5.25;;;2.67;;
32633;SDS011;19043;51.012;5.648;2023-04-19T11:43:33;8.18;;;2.22;;
32633;SDS011;19043;51.012;5.648;2023-04-19T11:46:05;6.05;;;3.15;;
32633;SDS011;19043;51.012;5.648;2023-04-19T11:48:31;6.72;;;2.22;;
32633;SDS011;19043;51.012;5.648;2023-04-19T11:50:57;4.50;;;2.40;;
32633;SDS011;19043;51.012;5.648;2023-04-19T11:53:23;7.38;;;2.55;;
32633;SDS011;19043;51.012;5.648;2023-04-19T11:55:50;4.18;;;2.30;;
32633;SDS011;19043;51.012;5.648;2023-04-19T12:00:49;7.70;;;2.58;;
32633;SDS011;19043;51.012;5.648;2023-04-19T12:03:15;5.28;;;2.65;;
32633;SDS011;19043;51.012;5.648;2023-04-19T12:05:50;5.38;;;2.63;;
32633;SDS011;19043;51.012;5.648;2023-04-19T12:08:16;6.35;;;2.45;;
32633;SDS011;19043;51.012;5.648;2023-04-19T12:10:53;8.73;;;2.07;;
32633;SDS011;19043;51.012;5.648;2023-04-19T12:13:19;6.07;;;2.83;;
32633;SDS011;19043;51.012;5.648;2023-04-19T12:15:45;5.00;;;2.33;;
32633;SDS011;19043;51.012;5.648;2023-04-19T12:18:10;5.47;;;1.92;;
32633;SDS011;19043;51.012;5.648;2023-04-19T12:20:36;4.53;;;2.08;;
32633;SDS011;19043;51.012;5.648;2023-04-19T12:23:02;7.47;;;2.45;;
32633;SDS011;19043;51.012;5.648;2023-04-19T12:25:32;8.25;;;2.30;;
32633;SDS011;19043;51.012;5.648;2023-04-19T12:27:57;4.55;;;2.05;;
32633;SDS011;19043;51.012;5.648;2023-04-19T12:30:23;9.38;;;2.10;;
32633;SDS011;19043;51.012;5.648;2023-04-19T12:32:48;7.93;;;2.10;;
32633;SDS011;19043;51.012;5.648;2023-04-19T12:35:15;9.55;;;2.38;;
32633;SDS011;19043;51.012;5.648;2023-04-19T12:37:40;5.10;;;2.47;;
32633;SDS011;19043;51.012;5.648;2023-04-19T12:40:06;5.25;;;2.30;;
32633;SDS011;19043;51.012;5.648;2023-04-19T12:42:31;5.47;;;2.65;;
32633;SDS011;19043;51.012;5.648;2023-04-19T12:44:57;4.73;;;2.00;;
32633;SDS011;19043;51.012;5.648;2023-04-19T12:47:22;5.03;;;2.50;;
32633;SDS011;19043;51.012;5.648;2023-04-19T12:49:47;7.15;;;2.80;;
32633;SDS011;19043;51.012;5.648;2023-04-19T12:52:12;4.53;;;2.50;;
32633;SDS011;19043;51.012;5.648;2023-04-19T12:54:38;7.95;;;2.33;;
32633;SDS011;19043;51.012;5.648;2023-04-19T12:57:03;4.37;;;2.40;;
32633;SDS011;19043;51.012;5.648;2023-04-19T12:59:29;3.88;;;2.20;;
32633;SDS011;19043;51.012;5.648;2023-04-19T13:01:54;7.25;;;2.40;;
32633;SDS011;19043;51.012;5.648;2023-04-19T13:04:20;4.15;;;1.98;;
32633;SDS011;19043;51.012;5.648;2023-04-19T13:06:45;3.57;;;1.83;;
32633;SDS011;19043;51.012;5.648;2023-04-19T13:09:10;4.97;;;2.70;;
32633;SDS011;19043;51.012;5.648;2023-04-19T13:11:36;4.07;;;2.33;;
32633;SDS011;19043;51.012;5.648;2023-04-19T13:14:01;4.73;;;2.03;;
32633;SDS011;19043;51.012;5.648;2023-04-19T13:16:26;6.78;;;2.28;;
32633;SDS011;19043;51.012;5.648;2023-04-19T13:18:52;15.60;;;2.95;;
32633;SDS011;19043;51.012;5.648;2023-04-19T13:21:18;6.05;;;2.15;;
32633;SDS011;19043;51.012;5.648;2023-04-19T13:23:43;5.53;;;2.83;;
32633;SDS011;19043;51.012;5.648;2023-04-19T13:26:09;8.10;;;3.22;;
32633;SDS011;19043;51.012;5.648;2023-04-19T13:28:35;5.18;;;2.38;;
32633;SDS011;19043;51.012;5.648;2023-04-19T13:31:00;8.13;;;2.35;;
32633;SDS011;19043;51.012;5.648;2023-04-19T13:33:26;9.18;;;2.53;;
32633;SDS011;19043;51.012;5.648;2023-04-19T13:35:51;5.53;;;2.30;;
32633;SDS011;19043;51.012;5.648;2023-04-19T13:38:17;4.85;;;2.00;;
32633;SDS011;19043;51.012;5.648;2023-04-19T13:40:43;6.23;;;2.90;;
32633;SDS011;19043;51.012;5.648;2023-04-19T13:43:08;4.85;;;2.20;;
32633;SDS011;19043;51.012;5.648;2023-04-19T13:45:34;10.00;;;2.30;;
32633;SDS011;19043;51.012;5.648;2023-04-19T13:47:59;4.70;;;2.75;;
32633;SDS011;19043;51.012;5.648;2023-04-19T13:50:24;4.60;;;2.53;;
32633;SDS011;19043;51.012;5.648;2023-04-19T13:52:50;6.63;;;2.40;;
32633;SDS011;19043;51.012;5.648;2023-04-19T13:55:15;11.20;;;2.55;;
32633;SDS011;19043;51.012;5.648;2023-04-19T13:57:40;10.38;;;3.13;;
32633;SDS011;19043;51.012;5.648;2023-04-19T14:00:06;6.55;;;2.50;;
32633;SDS011;19043;51.012;5.648;2023-04-19T14:02:32;5.35;;;2.65;;
32633;SDS011;19043;51.012;5.648;2023-04-19T14:04:57;3.97;;;2.25;;
32633;SDS011;19043;51.012;5.648;2023-04-19T14:07:23;6.43;;;2.28;;
32633;SDS011;19043;51.012;5.648;2023-04-19T14:09:48;3.58;;;2.15;;
32633;SDS011;19043;51.012;5.648;2023-04-19T14:12:14;4.63;;;2.53;;
32633;SDS011;19043;51.012;5.648;2023-04-19T14:14:39;4.75;;;2.58;;
32633;SDS011;19043;51.012;5.648;2023-04-19T14:17:04;12.67;;;3.23;;
32633;SDS011;19043;51.012;5.648;2023-04-19T14:19:30;4.45;;;2.28;;
32633;SDS011;19043;51.012;5.648;2023-04-19T14:21:55;5.87;;;3.07;;
32633;SDS011;19043;51.012;5.648;2023-04-19T14:24:20;10.98;;;2.40;;
32633;SDS011;19043;51.012;5.648;2023-04-19T14:26:45;13.15;;;2.95;;
32633;SDS011;19043;51.012;5.648;2023-04-19T14:29:11;4.97;;;2.50;;
32633;SDS011;19043;51.012;5.648;2023-04-19T14:31:36;4.70;;;2.47;;
32633;SDS011;19043;51.012;5.648;2023-04-19T14:34:01;5.18;;;2.88;;
32633;SDS011;19043;51.012;5.648;2023-04-19T14:36:27;6.35;;;2.67;;
32633;SDS011;19043;51.012;5.648;2023-04-19T14:38:52;5.22;;;2.80;;
32633;SDS011;19043;51.012;5.648;2023-04-19T14:41:17;6.60;;;3.03;;
32633;SDS011;19043;51.012;5.648;2023-04-19T14:43:42;5.67;;;2.50;;
32633;SDS011;19043;51.012;5.648;2023-04-19T14:46:08;4.05;;;2.70;;
32633;SDS011;19043;51.012;5.648;2023-04-19T14:48:33;4.27;;;2.53;;
32633;SDS011;19043;51.012;5.648;2023-04-19T14:50:58;9.25;;;2.72;;
32633;SDS011;19043;51.012;5.648;2023-04-19T14:53:23;5.23;;;3.13;;